createdAt,value
2023-01-19T00:01:38.620Z,9.70
2023-01-19T00:04:06.757Z,9.47
2023-01-19T00:06:34.866Z,9.40
2023-01-19T00:09:03.003Z,9.27
2023-01-19T00:11:30.932Z,9.83
2023-01-19T00:13:59.090Z,9.13
2023-01-19T00:16:28.757Z,9.17
2023-01-19T00:18:56.851Z,9.40
2023-01-19T00:21:24.902Z,9.50
2023-01-19T00:23:53.016Z,9.43
2023-01-19T00:26:23.112Z,9.33
2023-01-19T00:28:51.522Z,9.37
2023-01-19T00:31:21.717Z,9.03
2023-01-19T00:33:52.782Z,8.73
2023-01-19T00:36:21.056Z,9.33
2023-01-19T00:38:49.065Z,9.10
2023-01-19T00:41:17.369Z,9.23
2023-01-19T00:43:44.919Z,8.93
2023-01-19T00:46:13.107Z,9.23
2023-01-19T00:48:41.099Z,9.10
2023-01-19T00:51:10.489Z,9.90
2023-01-19T00:53:38.483Z,9.73
2023-01-19T00:56:07.290Z,8.93
2023-01-19T00:58:35.339Z,9.07
2023-01-19T01:01:04.982Z,9.73
2023-01-19T01:03:33.478Z,10.00
2023-01-19T01:06:01.489Z,8.90
2023-01-19T01:08:31.365Z,9.07
2023-01-19T01:10:59.462Z,9.20
2023-01-19T01:13:29.268Z,9.10
2023-01-19T01:15:59.155Z,9.80
2023-01-19T01:18:27.283Z,8.80
2023-01-19T01:21:02.082Z,9.03
2023-01-19T01:23:31.711Z,9.40
2023-01-19T01:25:59.868Z,9.37
2023-01-19T01:28:28.135Z,9.43
2023-01-19T01:30:57.556Z,9.10
2023-01-19T01:33:41.189Z,9.07
2023-01-19T01:36:10.520Z,8.43
2023-01-19T01:38:40.068Z,9.73
2023-01-19T01:41:08.791Z,9.57
2023-01-19T01:43:48.532Z,9.13
2023-01-19T01:46:18.060Z,9.50
2023-01-19T01:48:50.974Z,9.10
2023-01-19T01:51:26.294Z,9.10
2023-01-19T01:54:14.340Z,9.83
2023-01-19T01:56:45.182Z,9.47
2023-01-19T01:59:25.941Z,9.03
2023-01-19T02:02:13.066Z,9.33
2023-01-19T02:04:45.055Z,9.80
2023-01-19T02:07:33.501Z,9.03
2023-01-19T02:10:20.423Z,10.13
2023-01-19T02:13:06.286Z,10.17
2023-01-19T02:15:34.502Z,8.83
2023-01-19T02:18:02.552Z,9.33
2023-01-19T02:20:33.077Z,9.57
2023-01-19T02:23:04.532Z,9.67
2023-01-19T02:25:34.437Z,9.13
2023-01-19T02:28:02.585Z,9.53
2023-01-19T02:30:32.989Z,9.90
2023-01-19T02:33:01.351Z,9.70
2023-01-19T02:35:29.732Z,9.23
2023-01-19T02:37:59.084Z,9.30
2023-01-19T02:40:29.219Z,9.60
2023-01-19T02:43:01.483Z,9.93
2023-01-19T02:45:30.004Z,10.13
2023-01-19T02:47:57.977Z,9.43
2023-01-19T02:50:38.817Z,9.13
2023-01-19T02:53:18.804Z,9.17
2023-01-19T02:55:54.600Z,10.17
2023-01-19T02:58:34.200Z,8.97
2023-01-19T03:01:10.924Z,9.47
2023-01-19T03:03:48.692Z,9.70
2023-01-19T03:06:28.694Z,9.50
2023-01-19T03:09:03.184Z,9.33
2023-01-19T03:11:40.165Z,10.00
2023-01-19T03:14:13.838Z,9.73
2023-01-19T03:16:47.501Z,9.63
2023-01-19T03:19:20.761Z,9.27
2023-01-19T03:21:52.867Z,9.83
2023-01-19T03:24:24.966Z,9.40
2023-01-19T03:26:58.951Z,9.03
2023-01-19T03:29:31.446Z,8.90
2023-01-19T03:32:04.257Z,9.13
2023-01-19T03:34:32.623Z,9.60
2023-01-19T03:37:04.812Z,8.80
2023-01-19T03:39:33.213Z,9.20
2023-01-19T03:42:04.274Z,9.60
2023-01-19T03:44:38.653Z,8.80
2023-01-19T03:47:08.892Z,9.80
2023-01-19T03:49:38.954Z,8.70
2023-01-19T03:52:07.494Z,9.43
2023-01-19T03:54:35.738Z,9.77
2023-01-19T03:57:03.821Z,10.53
2023-01-19T03:59:33.384Z,10.37
2023-01-19T04:02:01.982Z,9.73
2023-01-19T04:04:29.988Z,10.77
2023-01-19T04:06:59.067Z,11.13
2023-01-19T04:09:27.278Z,9.30
2023-01-19T04:11:55.952Z,11.13
2023-01-19T04:14:24.263Z,11.83
2023-01-19T04:16:53.763Z,11.80
2023-01-19T04:19:21.794Z,11.13
2023-01-19T04:21:50.815Z,10.27
2023-01-19T04:24:18.911Z,10.97
2023-01-19T04:26:47.036Z,10.20
2023-01-19T04:29:15.291Z,11.00
2023-01-19T04:31:43.262Z,11.27
2023-01-19T04:34:12.776Z,10.90
2023-01-19T04:36:40.810Z,11.40
2023-01-19T04:39:10.525Z,11.07
2023-01-19T04:41:38.718Z,11.10
2023-01-19T04:44:07.310Z,11.53
2023-01-19T04:46:35.403Z,10.97
2023-01-19T04:49:04.011Z,12.03
2023-01-19T04:51:34.424Z,12.53
2023-01-19T04:54:05.022Z,13.17
2023-01-19T04:56:33.466Z,14.10
2023-01-19T04:59:01.711Z,13.83
2023-01-19T05:01:30.011Z,15.40
2023-01-19T05:04:00.074Z,14.27
2023-01-19T05:06:28.095Z,14.47
2023-01-19T05:08:57.493Z,14.17
2023-01-19T05:11:25.698Z,14.20
2023-01-19T05:13:53.945Z,12.67
2023-01-19T05:16:22.103Z,13.40
2023-01-19T05:18:50.135Z,13.20
2023-01-19T05:21:18.285Z,11.83
2023-01-19T05:23:46.323Z,12.07
2023-01-19T05:26:16.093Z,10.40
2023-01-19T05:28:44.237Z,10.80
2023-01-19T05:31:12.523Z,10.90
2023-01-19T05:33:41.219Z,9.83
2023-01-19T05:36:09.597Z,9.30
2023-01-19T05:38:37.781Z,9.60
2023-01-19T05:41:06.081Z,9.53
2023-01-19T05:43:35.729Z,9.03
2023-01-19T05:46:05.623Z,9.10
2023-01-19T05:48:33.937Z,9.60
2023-01-19T05:51:02.655Z,8.50
2023-01-19T05:53:30.764Z,8.30
2023-01-19T05:56:02.615Z,8.37
2023-01-19T05:58:30.684Z,7.80
2023-01-19T06:01:05.487Z,7.47
2023-01-19T06:03:33.796Z,7.63
2023-01-19T06:06:02.717Z,7.50
2023-01-19T06:08:31.184Z,7.37
2023-01-19T06:10:59.383Z,7.30
2023-01-19T06:13:27.511Z,7.20
2023-01-19T06:16:01.941Z,6.83
2023-01-19T06:18:30.521Z,6.27
2023-01-19T06:20:59.608Z,6.40
2023-01-19T06:23:28.099Z,6.33
2023-01-19T06:25:56.192Z,6.73
2023-01-19T06:28:25.357Z,6.50
2023-01-19T06:30:56.562Z,6.33
2023-01-19T06:33:28.905Z,5.90
2023-01-19T06:35:57.205Z,6.03
2023-01-19T06:38:25.320Z,6.03
2023-01-19T06:40:55.088Z,5.83
2023-01-19T06:43:23.527Z,5.80
2023-01-19T06:45:51.805Z,5.60
2023-01-19T06:48:20.740Z,5.77
2023-01-19T06:50:50.639Z,5.47
2023-01-19T06:53:20.848Z,5.77
2023-01-19T06:55:48.969Z,5.80
2023-01-19T06:58:17.397Z,5.30
2023-01-19T07:00:45.422Z,5.43
2023-01-19T07:03:20.557Z,6.00
2023-01-19T07:05:52.918Z,6.40
2023-01-19T07:08:21.104Z,6.13
2023-01-19T07:11:25.125Z,6.80
2023-01-19T07:13:39.471Z,7.50
2023-01-19T07:16:09.205Z,7.57
2023-01-19T07:18:37.450Z,7.67
2023-01-19T07:21:08.012Z,8.17
2023-01-19T07:23:38.311Z,7.90
2023-01-19T07:26:06.726Z,7.97
2023-01-19T07:28:34.760Z,6.97
2023-01-19T07:31:03.051Z,7.30
2023-01-19T07:33:31.157Z,7.77
2023-01-19T07:35:59.221Z,7.43
2023-01-19T07:38:28.855Z,7.43
2023-01-19T07:41:01.845Z,8.30
2023-01-19T07:43:29.953Z,8.73
2023-01-19T07:45:58.251Z,8.77
2023-01-19T07:48:26.763Z,9.50
2023-01-19T07:50:54.919Z,9.43
2023-01-19T07:53:23.008Z,9.57
2023-01-19T07:55:57.615Z,10.13
2023-01-19T07:58:26.565Z,9.83
2023-01-19T08:00:54.760Z,9.67
2023-01-19T08:03:22.858Z,10.20
2023-01-19T08:05:52.857Z,10.73
2023-01-19T08:08:21.159Z,10.00
2023-01-19T08:10:51.310Z,10.83
2023-01-19T08:13:20.763Z,10.70
2023-01-19T08:15:51.982Z,10.57
2023-01-19T08:18:20.183Z,11.50
2023-01-19T08:20:48.290Z,11.23
2023-01-19T08:23:18.195Z,11.23
2023-01-19T08:25:47.223Z,10.93
2023-01-19T08:28:17.062Z,10.83
2023-01-19T08:30:53.883Z,10.43
2023-01-19T08:33:23.223Z,10.13
2023-01-19T08:35:53.389Z,9.90
2023-01-19T08:38:21.699Z,10.53
2023-01-19T08:40:50.179Z,9.53
2023-01-19T08:43:19.215Z,9.40
2023-01-19T08:45:52.967Z,9.70
2023-01-19T08:48:23.560Z,9.37
2023-01-19T08:50:52.959Z,8.97
2023-01-19T08:53:23.742Z,9.87
2023-01-19T08:55:57.587Z,9.97
2023-01-19T08:58:25.815Z,9.73
2023-01-19T09:00:56.096Z,10.17
2023-01-19T09:03:24.411Z,9.20
2023-01-19T09:05:52.491Z,9.23
2023-01-19T09:08:20.613Z,9.90
2023-01-19T09:10:50.725Z,10.10
2023-01-19T09:13:19.988Z,9.60
2023-01-19T09:15:48.189Z,9.97
2023-01-19T09:18:19.270Z,11.13
2023-01-19T09:20:49.165Z,9.57
2023-01-19T09:23:19.568Z,10.00
2023-01-19T09:25:49.106Z,9.20
2023-01-19T09:28:18.703Z,10.03
2023-01-19T09:30:46.984Z,10.43
2023-01-19T09:33:18.650Z,10.97
2023-01-19T09:35:48.351Z,11.33
2023-01-19T09:38:17.640Z,11.50
2023-01-19T09:40:48.872Z,12.10
2023-01-19T09:43:25.810Z,11.20
2023-01-19T09:45:59.077Z,12.37
2023-01-19T09:48:47.963Z,12.80
2023-01-19T09:51:19.729Z,12.70
2023-01-19T09:54:04.481Z,13.10
2023-01-19T09:56:33.756Z,13.30
2023-01-19T09:59:02.473Z,12.90
2023-01-19T10:02:01.639Z,13.00
2023-01-19T10:04:35.613Z,14.30
2023-01-19T10:07:22.914Z,13.30
2023-01-19T10:10:04.539Z,14.83
2023-01-19T10:12:41.410Z,13.97
2023-01-19T10:15:20.492Z,14.67
2023-01-19T10:18:00.313Z,14.23
2023-01-19T10:20:36.500Z,14.40
2023-01-19T10:23:07.241Z,14.60
2023-01-19T10:25:35.510Z,16.30
2023-01-19T10:28:04.733Z,15.90
2023-01-19T10:30:36.312Z,15.20
2023-01-19T10:33:04.741Z,15.97
2023-01-19T10:35:34.395Z,16.40
2023-01-19T10:38:03.664Z,15.63
2023-01-19T10:40:36.638Z,16.07
2023-01-19T10:43:42.809Z,15.97
2023-01-19T10:46:22.959Z,17.40
2023-01-19T10:48:53.056Z,14.73
2023-01-19T10:51:23.366Z,15.37
2023-01-19T10:53:58.141Z,16.70
2023-01-19T10:56:30.789Z,16.60
2023-01-19T10:59:01.387Z,15.50
2023-01-19T11:01:31.476Z,15.77
2023-01-19T11:04:05.556Z,17.43
2023-01-19T11:06:35.781Z,15.37
2023-01-19T11:09:18.628Z,16.90
2023-01-19T11:11:52.469Z,16.23
2023-01-19T11:14:23.171Z,15.73
2023-01-19T11:16:55.129Z,16.27
2023-01-19T11:19:30.282Z,16.83
2023-01-19T11:22:21.896Z,17.30
2023-01-19T11:24:50.878Z,17.37
2023-01-19T11:27:21.288Z,16.53
2023-01-19T11:29:51.932Z,16.80
2023-01-19T11:32:23.133Z,17.20
2023-01-19T11:34:51.720Z,18.53
2023-01-19T11:37:34.599Z,17.17
2023-01-19T11:40:06.065Z,16.50
2023-01-19T11:42:37.464Z,17.43
2023-01-19T11:45:12.309Z,17.40
2023-01-19T11:47:43.473Z,18.43
2023-01-19T11:50:22.397Z,16.80
2023-01-19T11:52:56.683Z,18.03
2023-01-19T11:55:34.188Z,19.17
2023-01-19T11:58:04.882Z,17.30
2023-01-19T12:00:38.307Z,16.90
2023-01-19T12:03:15.629Z,17.87
2023-01-19T12:05:51.377Z,17.60
2023-01-19T12:08:25.330Z,16.97
2023-01-19T12:10:56.847Z,16.33
2023-01-19T12:13:27.094Z,16.80
2023-01-19T12:15:59.107Z,16.90
2023-01-19T12:18:31.099Z,16.03
2023-01-19T12:21:01.341Z,16.50
2023-01-19T12:23:44.749Z,15.77
2023-01-19T12:26:38.561Z,16.73
2023-01-19T12:29:12.917Z,16.03
2023-01-19T12:31:43.133Z,15.50
2023-01-19T12:34:37.989Z,15.53
2023-01-19T12:37:08.311Z,15.83
2023-01-19T12:39:49.414Z,16.13
2023-01-19T12:42:21.231Z,16.83
2023-01-19T12:44:49.893Z,16.87
2023-01-19T12:47:24.376Z,15.67
2023-01-19T12:49:55.032Z,16.30
2023-01-19T12:52:33.507Z,15.97
2023-01-19T12:55:18.476Z,16.50
2023-01-19T12:57:53.207Z,17.43
2023-01-19T13:00:33.164Z,19.73
2023-01-19T13:03:02.559Z,17.00
2023-01-19T13:05:50.041Z,16.20
2023-01-19T13:08:23.836Z,15.60
2023-01-19T13:23:26.535Z,13.57
2023-01-19T13:26:06.557Z,13.27
2023-01-19T13:28:41.722Z,13.03
2023-01-19T13:31:11.231Z,13.43
2023-01-19T13:33:46.893Z,12.30
2023-01-19T13:36:23.306Z,13.30
2023-01-19T13:38:53.661Z,12.23
2023-01-19T13:41:24.368Z,12.37
2023-01-19T13:44:00.037Z,12.47
2023-01-19T13:46:29.837Z,12.53
2023-01-19T13:49:01.132Z,12.53
2023-01-19T13:51:29.151Z,12.50
2023-01-19T13:54:01.619Z,11.67
2023-01-19T13:56:30.119Z,12.73
2023-01-19T13:59:05.131Z,12.63
2023-01-19T14:01:33.776Z,13.37
2023-01-19T14:04:02.003Z,12.10
2023-01-19T14:06:35.157Z,12.60
2023-01-19T14:09:25.745Z,12.53
2023-01-19T14:12:13.980Z,12.57
2023-01-19T14:14:43.089Z,12.10
2023-01-19T14:17:23.395Z,13.03
2023-01-19T14:19:53.127Z,12.87
2023-01-19T14:22:21.303Z,14.20
2023-01-19T14:24:50.745Z,14.27
2023-01-19T14:27:22.886Z,16.50
2023-01-19T14:29:53.923Z,16.47
2023-01-19T14:32:24.125Z,15.87
2023-01-19T14:34:54.961Z,15.53
2023-01-19T14:37:26.675Z,16.43
2023-01-19T14:40:01.346Z,15.73
2023-01-19T14:42:32.817Z,14.93
2023-01-19T14:45:02.818Z,14.33
2023-01-19T14:47:53.633Z,13.00
2023-01-19T14:50:26.004Z,13.73
2023-01-19T14:52:57.909Z,12.37
2023-01-19T14:55:35.110Z,12.93
2023-01-19T14:58:03.254Z,12.00
2023-01-19T15:00:31.359Z,12.47
2023-01-19T15:02:59.447Z,13.40
2023-01-19T15:05:27.417Z,13.17
2023-01-19T15:07:56.535Z,13.07
2023-01-19T15:10:26.065Z,12.03
2023-01-19T15:12:55.995Z,11.67
2023-01-19T15:15:30.522Z,12.33
2023-01-19T15:17:59.488Z,12.80
2023-01-19T15:20:27.580Z,13.20
2023-01-19T15:22:55.712Z,12.17
2023-01-19T15:25:26.954Z,11.63
2023-01-19T15:27:59.781Z,12.47
2023-01-19T15:30:31.164Z,13.43
2023-01-19T15:32:59.241Z,12.37
2023-01-19T15:35:27.263Z,12.60
2023-01-19T15:37:55.457Z,13.10
2023-01-19T15:40:23.580Z,14.20
2023-01-19T15:42:51.793Z,13.70
2023-01-19T15:45:33.218Z,11.93
2023-01-19T15:48:02.640Z,12.33
2023-01-19T15:50:31.247Z,11.83
2023-01-19T15:52:59.409Z,11.67
2023-01-19T15:55:27.683Z,11.20
2023-01-19T15:58:01.438Z,12.13
2023-01-19T16:00:32.923Z,11.90
2023-01-19T16:03:02.913Z,11.10
2023-01-19T16:05:42.637Z,13.03
2023-01-19T16:08:12.083Z,11.50
2023-01-19T16:10:40.292Z,11.17
2023-01-19T16:13:08.500Z,11.43
2023-01-19T16:15:38.901Z,12.00
2023-01-19T16:18:07.785Z,11.27
2023-01-19T16:20:35.827Z,11.00
2023-01-19T16:23:17.545Z,11.63
2023-01-19T16:25:45.652Z,13.53
2023-01-19T16:28:13.716Z,12.00
2023-01-19T16:30:43.276Z,13.10
2023-01-19T16:33:13.832Z,12.40
2023-01-19T16:35:41.848Z,14.00
2023-01-19T16:38:10.429Z,14.23
2023-01-19T16:40:38.490Z,13.83
2023-01-19T16:43:06.451Z,13.70
2023-01-19T16:45:34.432Z,14.40
2023-01-19T16:48:04.159Z,13.23
2023-01-19T16:50:32.246Z,13.77
2023-01-19T16:53:00.391Z,14.10
2023-01-19T16:55:28.419Z,15.93
2023-01-19T16:57:56.787Z,20.63
2023-01-19T17:00:25.064Z,16.03
2023-01-19T17:02:53.252Z,15.87
2023-01-19T17:05:24.179Z,15.00
2023-01-19T17:07:52.272Z,14.67
2023-01-19T17:10:20.513Z,16.53
2023-01-19T17:12:48.576Z,14.67
2023-01-19T17:15:16.979Z,15.20
2023-01-19T17:17:45.073Z,16.80
2023-01-19T17:20:14.045Z,15.87
2023-01-19T17:22:43.747Z,17.97
2023-01-19T17:25:11.798Z,17.07
2023-01-19T17:27:39.846Z,16.53
2023-01-19T17:30:09.029Z,16.27
2023-01-19T17:32:37.258Z,15.60
2023-01-19T17:35:05.859Z,15.53
2023-01-19T17:37:33.833Z,15.30
2023-01-19T17:40:03.536Z,14.27
2023-01-19T17:42:31.654Z,15.07
2023-01-19T17:45:01.570Z,14.27
2023-01-19T17:47:29.584Z,14.57
2023-01-19T17:49:58.430Z,14.83
2023-01-19T17:52:26.442Z,14.50
2023-01-19T17:54:54.934Z,14.27
2023-01-19T17:57:25.135Z,14.50
2023-01-19T17:59:54.185Z,13.07
2023-01-19T18:02:24.600Z,13.70
2023-01-19T18:04:53.770Z,14.80
2023-01-19T18:07:22.694Z,14.63
2023-01-19T18:09:51.749Z,15.13
2023-01-19T18:12:20.438Z,14.63
2023-01-19T18:14:50.963Z,15.63
2023-01-19T18:17:19.452Z,15.33
2023-01-19T18:19:47.550Z,15.27
2023-01-19T18:22:15.835Z,16.23
2023-01-19T18:24:46.007Z,15.47
2023-01-19T18:27:16.384Z,16.40
2023-01-19T18:29:44.648Z,16.67
2023-01-19T18:32:14.527Z,17.53
2023-01-19T18:34:42.642Z,16.73
2023-01-19T18:37:11.609Z,19.10
2023-01-19T18:39:39.681Z,18.73
2023-01-19T18:42:07.876Z,16.67
2023-01-19T18:44:35.967Z,16.13
2023-01-19T18:47:04.007Z,15.50
2023-01-19T18:49:33.611Z,15.97
2023-01-19T18:52:01.769Z,16.33
2023-01-19T18:54:29.824Z,16.87
2023-01-19T18:56:57.959Z,15.93
2023-01-19T18:59:26.254Z,16.17
2023-01-19T19:01:54.434Z,16.90
2023-01-19T19:04:22.591Z,17.47
2023-01-19T19:06:52.236Z,16.70
2023-01-19T19:09:20.714Z,16.87
2023-01-19T19:11:48.782Z,15.90
2023-01-19T19:14:16.797Z,16.80
2023-01-19T19:16:44.926Z,15.67
2023-01-19T19:19:15.457Z,16.03
2023-01-19T19:21:44.772Z,16.40
2023-01-19T19:24:14.167Z,16.03
2023-01-19T19:26:42.486Z,16.07
2023-01-19T19:29:10.536Z,15.77
2023-01-19T19:31:38.560Z,15.80
2023-01-19T19:34:06.591Z,15.03
2023-01-19T19:36:36.348Z,15.70
2023-01-19T19:39:04.873Z,16.30
2023-01-19T19:41:37.118Z,15.73
2023-01-19T19:44:12.768Z,16.10
2023-01-19T19:46:42.056Z,16.77
2023-01-19T19:49:09.968Z,16.30
2023-01-19T19:51:42.301Z,15.33
2023-01-19T19:54:15.924Z,15.53
2023-01-19T19:56:48.908Z,16.10
2023-01-19T19:59:18.013Z,16.27
2023-01-19T20:01:56.026Z,15.43
2023-01-19T20:04:34.922Z,15.27
2023-01-19T20:07:06.435Z,14.43
2023-01-19T20:09:36.792Z,15.70
2023-01-19T20:12:09.849Z,14.87
2023-01-19T20:14:39.834Z,15.90
2023-01-19T20:17:11.148Z,14.50
2023-01-19T20:19:47.576Z,13.77
2023-01-19T20:22:16.293Z,13.83
2023-01-19T20:24:45.854Z,13.73
2023-01-19T20:27:15.705Z,13.70
2023-01-19T20:29:51.508Z,13.90
2023-01-19T20:32:20.025Z,14.37
2023-01-19T20:34:49.113Z,13.83
2023-01-19T20:37:17.513Z,13.60
2023-01-19T20:39:46.120Z,13.87
2023-01-19T20:42:16.655Z,13.60
2023-01-19T20:44:45.767Z,14.63
2023-01-19T20:47:14.106Z,14.43
2023-01-19T20:49:42.175Z,14.17
2023-01-19T20:52:10.233Z,13.37
2023-01-19T20:54:40.007Z,13.73
2023-01-19T20:57:08.006Z,14.07
2023-01-19T20:59:38.357Z,14.10
2023-01-19T21:02:12.374Z,14.23
2023-01-19T21:04:40.502Z,13.47
2023-01-19T21:07:09.111Z,13.40
2023-01-19T21:09:37.488Z,13.67
2023-01-19T21:12:07.934Z,13.40
2023-01-19T21:14:38.466Z,13.07
2023-01-19T21:17:06.445Z,13.57
2023-01-19T21:19:34.419Z,13.60
2023-01-19T21:22:02.386Z,14.77
2023-01-19T21:24:30.770Z,13.90
2023-01-19T21:27:01.137Z,13.80
2023-01-19T21:29:29.168Z,13.60
2023-01-19T21:31:58.640Z,12.87
2023-01-19T21:34:26.705Z,12.90
2023-01-19T21:36:54.739Z,13.40
2023-01-19T21:39:22.957Z,12.93
2023-01-19T21:41:51.016Z,12.53
2023-01-19T21:44:19.098Z,12.77
2023-01-19T21:46:47.132Z,12.57
2023-01-19T21:49:19.110Z,13.33
2023-01-19T21:51:48.117Z,12.90
2023-01-19T21:54:16.273Z,12.53
2023-01-19T21:56:44.400Z,12.87
2023-01-19T21:59:14.769Z,12.70
2023-01-19T22:01:43.944Z,12.63
2023-01-19T22:04:11.970Z,12.63
2023-01-19T22:06:41.513Z,13.30
2023-01-19T22:09:09.704Z,12.47
2023-01-19T22:11:37.713Z,12.63
2023-01-19T22:14:05.726Z,12.47
2023-01-19T22:16:33.978Z,12.57
2023-01-19T22:19:02.697Z,12.60
2023-01-19T22:21:33.054Z,12.87
2023-01-19T22:24:03.855Z,12.23
2023-01-19T22:26:34.136Z,13.63
2023-01-19T22:29:03.437Z,13.40
2023-01-19T22:31:32.152Z,13.33
2023-01-19T22:34:00.446Z,13.20
2023-01-19T22:36:30.737Z,13.50
2023-01-19T22:38:59.911Z,12.90
2023-01-19T22:41:31.593Z,13.37
2023-01-19T22:44:00.958Z,12.90
2023-01-19T22:46:30.690Z,13.43
2023-01-19T22:49:00.245Z,13.77
2023-01-19T22:51:29.733Z,14.13
2023-01-19T22:53:57.984Z,12.33
2023-01-19T22:56:27.400Z,13.37
2023-01-19T22:58:57.386Z,12.90
2023-01-19T23:01:27.393Z,13.63
2023-01-19T23:03:56.562Z,13.40
2023-01-19T23:06:26.756Z,13.90
2023-01-19T23:08:56.155Z,14.27
2023-01-19T23:11:26.439Z,14.20
2023-01-19T23:13:56.370Z,15.40
2023-01-19T23:16:24.371Z,15.00
2023-01-19T23:18:54.514Z,14.23
2023-01-19T23:21:24.494Z,14.90
2023-01-19T23:23:54.759Z,16.50
2023-01-19T23:26:23.745Z,16.93
2023-01-19T23:28:57.438Z,16.70
2023-01-19T23:31:27.445Z,15.80
2023-01-19T23:33:56.853Z,16.93
2023-01-19T23:36:27.068Z,15.93
2023-01-19T23:38:56.617Z,15.90
2023-01-19T23:41:26.145Z,15.53
2023-01-19T23:43:54.181Z,15.40
2023-01-19T23:46:24.027Z,15.50
2023-01-19T23:48:52.165Z,15.77
2023-01-19T23:51:23.696Z,15.97
2023-01-19T23:53:51.935Z,16.17
2023-01-19T23:56:21.788Z,16.40
2023-01-19T23:58:56.582Z,16.47
